createdAt,value
2023-04-04T00:00:52.102Z,4.42
2023-04-04T00:03:19.212Z,4.40
2023-04-04T00:05:46.352Z,4.32
2023-04-04T00:08:13.445Z,4.33
2023-04-04T00:10:40.829Z,4.21
2023-04-04T00:13:09.351Z,4.24
2023-04-04T00:15:39.196Z,4.41
2023-04-04T00:18:08.861Z,4.34
2023-04-04T00:20:38.529Z,4.29
2023-04-04T00:23:05.775Z,4.10
2023-04-04T00:25:35.389Z,4.01
2023-04-04T00:28:02.268Z,4.05
2023-04-04T00:30:32.157Z,4.04
2023-04-04T00:33:02.059Z,4.01
2023-04-04T00:35:29.516Z,4.03
2023-04-04T00:37:56.831Z,4.01
2023-04-04T00:40:26.780Z,4.08
2023-04-04T00:42:54.079Z,3.97
2023-04-04T00:45:21.668Z,3.86
2023-04-04T00:47:50.536Z,3.95
2023-04-04T00:50:17.990Z,3.86
2023-04-04T00:52:44.868Z,3.87
2023-04-04T00:55:14.566Z,3.73
2023-04-04T00:57:41.460Z,3.80
2023-04-04T01:00:12.032Z,3.81
2023-04-04T01:02:39.382Z,3.75
2023-04-04T01:05:08.354Z,3.92
2023-04-04T01:07:40.520Z,3.81
2023-04-04T01:10:11.470Z,3.77
2023-04-04T01:12:42.058Z,3.75
2023-04-04T01:15:09.852Z,3.85
2023-04-04T01:17:39.957Z,3.76
2023-04-04T01:20:15.934Z,3.80
2023-04-04T01:22:48.218Z,3.72
2023-04-04T01:25:16.446Z,3.81
2023-04-04T01:27:43.616Z,3.95
2023-04-04T01:30:12.542Z,3.94
2023-04-04T01:32:57.475Z,3.83
2023-04-04T01:35:44.398Z,3.89
2023-04-04T01:38:40.563Z,3.68
2023-04-04T01:41:12.254Z,3.77
2023-04-04T01:43:41.623Z,3.85
2023-04-04T01:46:10.979Z,3.72
2023-04-04T01:48:38.285Z,3.70
2023-04-04T01:51:06.359Z,3.65
2023-04-04T01:53:33.467Z,3.66
2023-04-04T01:56:03.514Z,3.56
2023-04-04T01:58:33.017Z,3.53
2023-04-04T02:01:00.059Z,3.62
2023-04-04T02:03:27.025Z,3.77
2023-04-04T02:05:54.337Z,3.68
2023-04-04T02:08:23.665Z,3.58
2023-04-04T02:10:50.740Z,3.60
2023-04-04T02:13:20.933Z,3.47
2023-04-04T02:15:49.394Z,3.41
2023-04-04T02:18:16.750Z,3.22
2023-04-04T02:20:45.080Z,3.15
2023-04-04T02:23:12.212Z,3.16
2023-04-04T02:25:39.241Z,3.16
2023-04-04T02:28:08.643Z,3.38
2023-04-04T02:30:35.625Z,3.35
2023-04-04T02:33:02.810Z,3.38
2023-04-04T02:35:29.927Z,3.19
2023-04-04T02:37:56.909Z,3.24
2023-04-04T02:40:23.993Z,3.04
2023-04-04T02:42:53.294Z,2.83
2023-04-04T02:45:25.910Z,2.76
2023-04-04T02:47:54.991Z,2.91
2023-04-04T02:50:22.391Z,2.92
2023-04-04T02:52:49.379Z,2.86
2023-04-04T02:55:16.525Z,2.77
2023-04-04T02:57:46.047Z,2.82
2023-04-04T03:00:13.641Z,2.87
2023-04-04T03:02:41.075Z,2.86
2023-04-04T03:05:08.671Z,2.89
2023-04-04T03:07:38.331Z,2.96
2023-04-04T03:10:05.866Z,2.98
2023-04-04T03:12:32.828Z,2.97
2023-04-04T03:14:59.906Z,3.02
2023-04-04T03:17:26.873Z,3.05
2023-04-04T03:19:53.885Z,3.15
2023-04-04T03:22:21.017Z,3.08
2023-04-04T03:24:51.174Z,2.82
2023-04-04T03:27:18.117Z,2.74
2023-04-04T03:29:45.056Z,2.92
2023-04-04T03:32:12.066Z,2.84
2023-04-04T03:34:44.745Z,3.04
2023-04-04T03:37:11.907Z,3.02
2023-04-04T03:39:38.966Z,3.06
2023-04-04T03:42:06.194Z,2.89
2023-04-04T03:44:40.731Z,2.81
2023-04-04T03:47:10.331Z,3.01
2023-04-04T03:49:39.379Z,3.04
2023-04-04T03:52:06.681Z,3.22
2023-04-04T03:54:37.248Z,3.12
2023-04-04T03:57:04.501Z,3.18
2023-04-04T03:59:33.672Z,3.23
2023-04-04T04:02:03.145Z,3.22
2023-04-04T04:04:30.276Z,3.23
2023-04-04T04:06:59.691Z,3.20
2023-04-04T04:09:27.175Z,3.18
2023-04-04T04:11:54.216Z,3.07
2023-04-04T04:14:21.267Z,3.04
2023-04-04T04:16:48.276Z,3.20
2023-04-04T04:19:17.442Z,3.24
2023-04-04T04:21:44.925Z,3.13
2023-04-04T04:24:11.909Z,2.96
2023-04-04T04:26:38.895Z,2.96
2023-04-04T04:29:07.357Z,3.07
2023-04-04T04:31:38.926Z,2.97
2023-04-04T04:34:13.643Z,3.06
2023-04-04T04:36:41.148Z,3.10
2023-04-04T04:39:08.111Z,3.18
2023-04-04T04:41:39.655Z,3.15
2023-04-04T04:44:08.904Z,3.19
2023-04-04T04:46:35.868Z,3.29
2023-04-04T04:49:05.856Z,3.29
2023-04-04T04:51:35.038Z,3.15
2023-04-04T04:54:02.102Z,3.21
2023-04-04T04:56:29.140Z,3.13
2023-04-04T04:59:01.612Z,3.19
2023-04-04T05:01:28.773Z,3.11
2023-04-04T05:03:59.127Z,3.09
2023-04-04T05:06:28.624Z,3.19
2023-04-04T05:08:57.859Z,3.29
2023-04-04T05:11:27.257Z,3.32
2023-04-04T05:13:57.347Z,3.22
2023-04-04T05:16:24.459Z,3.44
2023-04-04T05:18:53.475Z,3.33
2023-04-04T05:21:20.936Z,3.45
2023-04-04T05:23:48.631Z,3.44
2023-04-04T05:26:15.754Z,3.73
2023-04-04T05:28:42.749Z,3.71
2023-04-04T05:31:12.129Z,3.84
2023-04-04T05:33:39.074Z,3.85
2023-04-04T05:36:06.300Z,4.07
2023-04-04T05:41:00.510Z,4.25
2023-04-04T05:43:32.753Z,4.13
2023-04-04T05:45:59.827Z,4.52
2023-04-04T05:48:29.272Z,4.47
2023-04-04T05:50:56.614Z,4.51
2023-04-04T05:53:28.220Z,4.61
2023-04-04T05:55:58.833Z,4.63
2023-04-04T05:58:28.124Z,4.75
2023-04-04T06:00:57.334Z,4.69
2023-04-04T06:03:24.216Z,4.79
2023-04-04T06:05:57.258Z,4.96
2023-04-04T06:08:24.261Z,4.92
2023-04-04T06:10:51.346Z,4.95
2023-04-04T06:13:18.337Z,5.00
2023-04-04T06:15:48.444Z,5.08
2023-04-04T06:18:17.396Z,5.02
2023-04-04T06:20:44.594Z,5.04
2023-04-04T06:23:11.779Z,5.27
2023-04-04T06:25:41.563Z,5.40
2023-04-04T06:28:09.236Z,5.47
2023-04-04T06:30:38.270Z,5.42
2023-04-04T06:33:06.262Z,5.60
2023-04-04T06:35:36.424Z,5.64
2023-04-04T06:38:05.560Z,5.94
2023-04-04T06:40:32.863Z,6.12
2023-04-04T06:43:00.144Z,6.43
2023-04-04T06:45:33.558Z,6.46
2023-04-04T06:48:01.331Z,6.83
2023-04-04T06:50:34.210Z,7.35
2023-04-04T06:53:04.254Z,7.65
2023-04-04T06:55:34.501Z,8.43
2023-04-04T06:58:04.082Z,9.04
2023-04-04T07:00:33.508Z,9.51
2023-04-04T07:03:03.069Z,10.01
2023-04-04T07:05:30.243Z,10.90
2023-04-04T07:08:01.820Z,11.60
2023-04-04T07:10:31.121Z,12.31
2023-04-04T07:12:58.181Z,12.90
2023-04-04T07:15:25.188Z,13.01
2023-04-04T07:17:55.266Z,13.12
2023-04-04T07:20:24.742Z,14.07
2023-04-04T07:22:56.637Z,13.43
2023-04-04T07:25:26.112Z,13.65
2023-04-04T07:28:02.362Z,14.51
2023-04-04T07:30:42.002Z,15.81
2023-04-04T07:33:11.906Z,16.67
2023-04-04T07:35:38.910Z,17.49
2023-04-04T07:38:05.905Z,17.88
2023-04-04T07:40:32.909Z,18.06
2023-04-04T07:42:59.884Z,18.03
2023-04-04T07:45:27.017Z,18.67
2023-04-04T07:47:59.572Z,18.33
2023-04-04T07:50:26.553Z,16.82
2023-04-04T07:52:55.910Z,18.04
2023-04-04T07:55:26.143Z,18.82
2023-04-04T07:57:54.655Z,18.79
2023-04-04T08:00:26.633Z,20.35
2023-04-04T08:02:59.248Z,21.57
2023-04-04T08:05:28.828Z,22.02
2023-04-04T08:07:55.798Z,22.63
2023-04-04T08:10:22.737Z,22.21
2023-04-04T08:12:53.311Z,22.22
2023-04-04T08:15:22.734Z,22.77
2023-04-04T08:17:50.298Z,23.63
2023-04-04T08:20:17.709Z,23.53
2023-04-04T08:22:46.970Z,23.95
2023-04-04T08:25:14.709Z,24.79
2023-04-04T08:27:44.152Z,25.32
2023-04-04T08:30:13.547Z,26.20
2023-04-04T08:32:42.102Z,26.08
2023-04-04T08:35:12.349Z,25.83
2023-04-04T08:37:39.829Z,25.96
2023-04-04T08:40:07.724Z,25.67
2023-04-04T08:42:36.784Z,25.52
2023-04-04T08:45:05.320Z,25.52
2023-04-04T08:47:36.212Z,24.49
2023-04-04T08:50:08.574Z,24.39
2023-04-04T08:52:38.201Z,24.95
2023-04-04T08:55:06.583Z,26.63
2023-04-04T08:57:33.953Z,25.87
2023-04-04T09:00:02.476Z,26.33
2023-04-04T09:03:08.298Z,24.23
2023-04-04T09:05:37.999Z,22.12
2023-04-04T09:08:09.176Z,19.75
2023-04-04T09:10:39.538Z,18.86
2023-04-04T09:13:15.458Z,18.10
2023-04-04T09:15:49.552Z,18.71
2023-04-04T09:18:19.648Z,18.55
2023-04-04T09:20:48.768Z,17.78
2023-04-04T09:23:23.951Z,18.82
2023-04-04T09:28:27.330Z,22.43
2023-04-04T09:30:56.680Z,23.47
2023-04-04T09:33:28.249Z,23.90
2023-04-04T09:35:58.920Z,24.69
2023-04-04T09:38:27.796Z,24.30
2023-04-04T09:40:55.995Z,25.33
2023-04-04T09:43:31.062Z,26.77
2023-04-04T09:46:00.593Z,26.35
2023-04-04T09:48:32.761Z,26.56
2023-04-04T09:51:02.294Z,26.73
2023-04-04T09:53:32.444Z,26.45
2023-04-04T09:55:59.468Z,27.59
2023-04-04T09:58:32.727Z,26.69
2023-04-04T10:01:12.606Z,26.59
2023-04-04T10:03:39.924Z,27.60
2023-04-04T10:06:12.874Z,27.72
2023-04-04T10:08:41.512Z,27.89
2023-04-04T10:11:11.362Z,27.01
2023-04-04T10:13:43.870Z,27.80
2023-04-04T10:16:13.694Z,26.55
2023-04-04T10:18:42.851Z,26.21
2023-04-04T10:21:15.870Z,26.45
2023-04-04T10:23:46.964Z,25.90
2023-04-04T10:26:14.445Z,25.43
2023-04-04T10:28:44.034Z,23.79
2023-04-04T10:31:20.355Z,24.92
2023-04-04T10:34:17.982Z,25.03
2023-04-04T10:37:10.763Z,24.20
2023-04-04T10:40:03.362Z,22.14
2023-04-04T10:42:40.836Z,21.35
2023-04-04T10:45:20.976Z,19.56
2023-04-04T10:47:49.450Z,19.47
2023-04-04T10:50:18.946Z,19.45
2023-04-04T10:52:48.472Z,17.55
2023-04-04T10:55:17.284Z,17.94
2023-04-04T10:57:52.944Z,18.00
2023-04-04T11:00:23.373Z,17.67
2023-04-04T11:02:59.628Z,18.72
2023-04-04T11:05:31.843Z,21.38
2023-04-04T11:10:37.212Z,24.54
2023-04-04T11:13:14.385Z,25.02
2023-04-04T11:16:21.531Z,24.45
2023-04-04T11:18:54.760Z,24.59
2023-04-04T11:21:29.964Z,24.61
2023-04-04T11:24:02.147Z,26.15
2023-04-04T11:26:29.037Z,26.25
2023-04-04T11:29:08.100Z,26.10
2023-04-04T11:31:42.408Z,26.48
2023-04-04T11:34:13.753Z,27.09
2023-04-04T11:36:41.602Z,26.97
2023-04-04T11:39:14.869Z,28.10
2023-04-04T11:42:04.958Z,28.21
2023-04-04T11:44:34.654Z,28.15
2023-04-04T11:47:09.657Z,26.87
2023-04-04T11:49:42.434Z,28.20
2023-04-04T11:52:14.325Z,28.41
2023-04-04T11:54:45.755Z,26.90
2023-04-04T11:57:15.637Z,23.17
2023-04-04T11:59:47.982Z,20.87
2023-04-04T12:02:32.183Z,20.12
2023-04-04T12:04:59.870Z,20.44
2023-04-04T12:07:29.284Z,22.82
2023-04-04T12:09:58.902Z,24.99
2023-04-04T12:12:28.317Z,23.87
2023-04-04T12:15:06.267Z,23.57
2023-04-04T12:17:44.105Z,22.91
2023-04-04T12:20:15.999Z,22.15
2023-04-04T12:22:43.309Z,21.35
2023-04-04T12:25:11.335Z,20.14
2023-04-04T12:27:38.729Z,20.79
2023-04-04T12:30:11.333Z,23.16
2023-04-04T12:32:41.652Z,25.50
2023-04-04T12:35:13.427Z,24.65
2023-04-04T12:37:56.417Z,24.93
2023-04-04T12:40:23.779Z,26.39
2023-04-04T12:42:55.374Z,27.56
2023-04-04T12:45:23.253Z,28.09
2023-04-04T12:47:58.709Z,29.31
2023-04-04T12:50:30.835Z,28.77
2023-04-04T12:55:53.411Z,26.57
2023-04-04T12:58:24.651Z,26.57
2023-04-04T13:00:54.704Z,27.49
2023-04-04T13:03:24.505Z,27.33
2023-04-04T13:05:54.588Z,27.59
2023-04-04T13:08:22.042Z,27.22
2023-04-04T13:11:05.994Z,28.18
2023-04-04T13:13:44.270Z,27.79
2023-04-04T13:16:14.427Z,28.66
2023-04-04T13:18:44.216Z,28.73
2023-04-04T13:21:12.609Z,27.67
2023-04-04T13:23:41.412Z,25.50
2023-04-04T13:26:12.016Z,25.11
2023-04-04T13:28:39.622Z,25.30
2023-04-04T13:31:10.010Z,25.88
2023-04-04T13:33:38.071Z,26.15
2023-04-04T13:36:05.895Z,26.12
2023-04-04T13:38:32.970Z,24.60
2023-04-04T13:41:02.701Z,24.36
2023-04-04T13:43:29.944Z,22.45
2023-04-04T13:46:04.936Z,22.67
2023-04-04T13:48:34.200Z,21.83
2023-04-04T13:51:01.367Z,22.01
2023-04-04T13:53:28.488Z,22.77
2023-04-04T13:58:25.866Z,23.34
2023-04-04T14:00:52.964Z,23.02
2023-04-04T14:03:20.081Z,21.63
2023-04-04T14:05:51.531Z,20.46
2023-04-04T14:08:21.153Z,19.56
2023-04-04T14:10:50.538Z,18.91
2023-04-04T14:13:18.343Z,18.33
2023-04-04T14:15:50.491Z,17.98
2023-04-04T14:18:20.223Z,18.12
2023-04-04T14:20:49.803Z,18.43
2023-04-04T14:23:22.262Z,18.92
2023-04-04T14:25:50.890Z,19.81
2023-04-04T14:28:18.199Z,20.55
2023-04-04T14:30:45.235Z,20.63
2023-04-04T14:33:12.440Z,20.60
2023-04-04T14:35:39.707Z,20.54
2023-04-04T14:38:07.003Z,19.99
2023-04-04T14:40:38.656Z,19.00
2023-04-04T14:43:05.669Z,18.56
2023-04-04T14:45:33.325Z,18.46
2023-04-04T14:48:00.674Z,17.98
2023-04-04T14:50:30.144Z,17.09
2023-04-04T14:52:59.536Z,17.39
2023-04-04T14:55:27.068Z,16.90
2023-04-04T15:00:27.124Z,15.91
2023-04-04T15:02:59.575Z,15.70
2023-04-04T15:05:27.240Z,15.16
2023-04-04T15:07:55.739Z,15.34
2023-04-04T15:10:23.229Z,15.25
2023-04-04T15:12:53.319Z,15.22
2023-04-04T15:15:22.266Z,15.03
2023-04-04T15:17:55.592Z,14.74
2023-04-04T15:20:25.135Z,14.81
2023-04-04T15:22:52.299Z,15.09
2023-04-04T15:25:21.575Z,15.27
2023-04-04T15:27:54.431Z,15.43
2023-04-04T15:30:21.735Z,15.35
2023-04-04T15:32:49.037Z,15.52
2023-04-04T15:35:21.190Z,15.31
2023-04-04T15:37:49.752Z,15.01
2023-04-04T15:40:18.113Z,15.11
2023-04-04T15:42:46.435Z,15.25
2023-04-04T15:45:14.652Z,15.25
2023-04-04T15:47:42.638Z,14.94
2023-04-04T15:50:11.628Z,15.43
2023-04-04T15:52:41.874Z,15.59
2023-04-04T15:55:16.772Z,15.10
2023-04-04T15:57:44.878Z,14.72
2023-04-04T16:00:13.982Z,14.70
2023-04-04T16:02:41.263Z,14.59
2023-04-04T16:05:13.662Z,14.71
2023-04-04T16:07:42.794Z,14.75
2023-04-04T16:10:10.626Z,14.62
2023-04-04T16:12:37.860Z,14.37
2023-04-04T16:15:12.466Z,14.55
2023-04-04T16:17:39.395Z,14.35
2023-04-04T16:20:07.407Z,14.19
2023-04-04T16:22:37.014Z,14.03
2023-04-04T16:25:04.584Z,13.89
2023-04-04T16:27:31.794Z,13.57
2023-04-04T16:29:58.829Z,13.59
2023-04-04T16:32:31.667Z,13.63
2023-04-04T16:35:01.249Z,13.52
2023-04-04T16:37:30.790Z,13.50
2023-04-04T16:40:01.070Z,13.25
2023-04-04T16:42:28.309Z,13.08
2023-04-04T16:44:55.463Z,13.13
2023-04-04T16:47:26.131Z,13.07
2023-04-04T16:49:54.870Z,12.67
2023-04-04T16:52:24.114Z,12.43
2023-04-04T16:54:51.076Z,12.41
2023-04-04T16:57:18.226Z,12.33
2023-04-04T16:59:47.599Z,12.27
2023-04-04T17:02:19.860Z,12.36
2023-04-04T17:04:46.791Z,12.52
2023-04-04T17:07:16.377Z,12.33
2023-04-04T17:09:48.205Z,12.42
2023-04-04T17:12:16.275Z,12.31
2023-04-04T17:14:46.643Z,12.39
2023-04-04T17:17:17.391Z,12.22
2023-04-04T17:19:46.613Z,12.17
2023-04-04T17:22:16.441Z,12.20
2023-04-04T17:24:48.204Z,12.08
2023-04-04T17:27:15.247Z,11.88
2023-04-04T17:29:44.553Z,11.84
2023-04-04T17:32:15.297Z,11.72
2023-04-04T17:34:42.292Z,11.66
2023-04-04T17:37:11.259Z,11.65
2023-04-04T17:39:38.430Z,11.58
2023-04-04T17:42:05.997Z,11.55
2023-04-04T17:44:33.164Z,11.53
2023-04-04T17:47:03.099Z,11.48
2023-04-04T17:49:30.522Z,11.44
2023-04-04T17:51:59.768Z,11.51
2023-04-04T17:54:30.808Z,11.56
2023-04-04T17:57:00.323Z,11.40
2023-04-04T17:59:27.918Z,11.49
2023-04-04T18:01:57.340Z,11.49
2023-04-04T18:04:25.503Z,11.42
2023-04-04T18:06:54.781Z,11.21
2023-04-04T18:09:23.729Z,11.33
2023-04-04T18:11:51.250Z,11.35
2023-04-04T18:14:20.885Z,11.45
2023-04-04T18:16:47.884Z,11.36
2023-04-04T18:19:14.977Z,11.48
2023-04-04T18:21:49.732Z,11.31
2023-04-04T18:24:19.145Z,11.32
2023-04-04T18:26:48.691Z,11.19
2023-04-04T18:29:15.999Z,11.33
2023-04-04T18:31:43.139Z,11.39
2023-04-04T18:34:10.124Z,11.49
2023-04-04T18:36:42.331Z,11.31
2023-04-04T18:39:09.791Z,11.28
2023-04-04T18:41:39.654Z,11.28
2023-04-04T18:44:09.568Z,11.17
2023-04-04T18:46:38.208Z,11.09
2023-04-04T18:49:08.168Z,11.17
2023-04-04T18:51:35.288Z,11.30
2023-04-04T18:54:02.278Z,11.25
2023-04-04T18:56:34.184Z,11.22
2023-04-04T18:59:01.199Z,11.18
2023-04-04T19:01:28.713Z,10.96
2023-04-04T19:03:56.935Z,11.05
2023-04-04T19:06:27.530Z,11.11
2023-04-04T19:08:58.944Z,10.84
2023-04-04T19:11:29.020Z,10.70
2023-04-04T19:13:56.165Z,10.73
2023-04-04T19:16:24.074Z,10.67
2023-04-04T19:18:51.249Z,10.71
2023-04-04T19:21:18.344Z,10.64
2023-04-04T19:23:46.520Z,10.62
2023-04-04T19:26:18.265Z,10.53
2023-04-04T19:28:46.439Z,10.56
2023-04-04T19:31:30.142Z,10.44
2023-04-04T19:34:02.150Z,10.32
2023-04-04T19:36:33.555Z,10.31
2023-04-04T19:39:00.764Z,10.23
2023-04-04T19:41:48.556Z,10.03
2023-04-04T19:44:20.671Z,10.00
2023-04-04T19:46:47.840Z,9.66
2023-04-04T19:49:19.875Z,9.52
2023-04-04T19:51:56.844Z,9.47
2023-04-04T19:54:42.690Z,9.66
2023-04-04T19:57:20.614Z,9.43
2023-04-04T20:00:03.458Z,9.44
2023-04-04T20:02:33.652Z,9.25
2023-04-04T20:05:01.476Z,9.30
2023-04-04T20:07:29.495Z,9.19
2023-04-04T20:09:59.142Z,9.26
2023-04-04T20:12:29.822Z,9.14
2023-04-04T20:14:59.716Z,9.04
2023-04-04T20:17:29.073Z,9.03
2023-04-04T20:19:56.306Z,9.10
2023-04-04T20:22:23.684Z,8.90
2023-04-04T20:24:50.995Z,8.90
2023-04-04T20:27:24.425Z,8.62
2023-04-04T20:29:54.324Z,8.80
2023-04-04T20:32:21.476Z,8.60
2023-04-04T20:34:52.935Z,8.63
2023-04-04T20:37:29.182Z,8.44
2023-04-04T20:40:04.495Z,8.34
2023-04-04T20:42:38.064Z,8.28
2023-04-04T20:45:28.962Z,8.27
2023-04-04T20:48:01.727Z,8.47
2023-04-04T20:50:31.264Z,8.32
2023-04-04T20:53:04.760Z,8.23
2023-04-04T20:55:37.005Z,8.29
2023-04-04T20:58:12.186Z,7.94
2023-04-04T21:00:45.677Z,8.07
2023-04-04T21:03:31.029Z,8.18
2023-04-04T21:06:10.320Z,8.24
2023-04-04T21:08:45.944Z,7.87
2023-04-04T21:11:14.394Z,8.01
2023-04-04T21:13:46.864Z,7.94
2023-04-04T21:16:19.545Z,7.95
2023-04-04T21:18:49.054Z,7.91
2023-04-04T21:21:19.763Z,7.80
2023-04-04T21:23:54.423Z,7.72
2023-04-04T21:26:37.612Z,7.64
2023-04-04T21:29:08.493Z,7.71
2023-04-04T21:31:41.548Z,7.52
2023-04-04T21:34:21.406Z,7.43
2023-04-04T21:36:59.759Z,7.33
2023-04-04T21:39:29.725Z,7.26
2023-04-04T21:42:07.838Z,7.16
2023-04-04T21:44:36.394Z,7.12
2023-04-04T21:47:03.365Z,7.01
2023-04-04T21:49:32.550Z,6.83
2023-04-04T21:52:01.985Z,6.86
2023-04-04T21:54:31.519Z,6.92
2023-04-04T21:57:01.048Z,6.89
2023-04-04T21:59:30.112Z,6.58
2023-04-04T22:01:57.195Z,6.72
2023-04-04T22:04:24.176Z,6.62
2023-04-04T22:06:51.468Z,6.45
2023-04-04T22:09:19.265Z,6.27
2023-04-04T22:11:46.304Z,6.25
2023-04-04T22:14:17.464Z,6.24
2023-04-04T22:16:45.323Z,6.34
2023-04-04T22:19:12.533Z,6.41
2023-04-04T22:21:46.805Z,6.41
2023-04-04T22:24:18.319Z,6.29
2023-04-04T22:26:45.969Z,6.18
2023-04-04T22:29:13.276Z,6.23
2023-04-04T22:31:47.412Z,6.08
2023-04-04T22:34:15.455Z,6.11
2023-04-04T22:36:43.799Z,5.84
2023-04-04T22:39:10.871Z,5.80
2023-04-04T22:41:40.288Z,5.81
2023-04-04T22:44:09.448Z,5.50
2023-04-04T22:46:38.835Z,5.41
2023-04-04T22:49:07.120Z,5.40
2023-04-04T22:51:45.634Z,5.44
2023-04-04T22:54:15.630Z,5.11
2023-04-04T22:56:42.961Z,4.67
2023-04-04T22:59:10.107Z,4.48
2023-04-04T23:01:42.207Z,4.50
2023-04-04T23:04:11.935Z,4.45
2023-04-04T23:06:38.915Z,4.58
2023-04-04T23:09:07.839Z,4.64
2023-04-04T23:11:35.204Z,4.52
2023-04-04T23:14:09.590Z,4.73
2023-04-04T23:16:37.355Z,4.58
2023-04-04T23:19:05.028Z,4.61
2023-04-04T23:21:34.562Z,4.70
2023-04-04T23:24:03.612Z,4.67
2023-04-04T23:26:33.738Z,4.76
2023-04-04T23:29:06.380Z,4.65
2023-04-04T23:31:33.338Z,4.69
2023-04-04T23:34:00.498Z,4.62
2023-04-04T23:36:27.786Z,4.59
2023-04-04T23:38:57.071Z,4.59
2023-04-04T23:41:24.078Z,4.54
2023-04-04T23:43:51.199Z,4.50
2023-04-04T23:46:18.332Z,4.40
2023-04-04T23:48:47.951Z,4.43
2023-04-04T23:51:16.229Z,4.22
2023-04-04T23:53:48.658Z,4.18
2023-04-04T23:56:16.582Z,4.11
2023-04-04T23:58:46.261Z,4.11
